sensor_id;sensor_type;location;lat;lon;timestamp;pressure;altitude;pressure_sealevel;temperature;humidity
33191;BME280;19554;42.652;23.364;2023-03-20T00:01:29;94962.38;;;8.40;49.51
33191;BME280;19554;42.652;23.364;2023-03-20T00:03:56;94890.53;;;8.04;49.15
33191;BME280;19554;42.652;23.364;2023-03-20T00:06:26;94954.97;;;8.42;49.41
33191;BME280;19554;42.652;23.364;2023-03-20T00:08:53;94933.63;;;8.31;49.58
33191;BME280;19554;42.652;23.364;2023-03-20T00:13:52;94932.03;;;8.36;49.57
33191;BME280;19554;42.652;23.364;2023-03-20T00:16:17;94870.84;;;7.95;49.57
33191;BME280;19554;42.652;23.364;2023-03-20T00:18:43;94939.47;;;8.34;49.60
33191;BME280;19554;42.652;23.364;2023-03-20T00:21:16;94901.69;;;8.01;49.53
33191;BME280;19554;42.652;23.364;2023-03-20T00:23:41;94949.59;;;8.21;49.92
33191;BME280;19554;42.652;23.364;2023-03-20T00:26:14;94941.06;;;8.19;50.05
33191;BME280;19554;42.652;23.364;2023-03-20T00:28:41;94940.00;;;8.15;50.27
33191;BME280;19554;42.652;23.364;2023-03-20T00:31:33;94938.94;;;8.11;50.34
33191;BME280;19554;42.652;23.364;2023-03-20T00:34:03;94938.91;;;8.06;50.44
33191;BME280;19554;42.652;23.364;2023-03-20T00:36:29;94940.50;;;8.02;50.62
33191;BME280;19554;42.652;23.364;2023-03-20T00:38:55;94940.50;;;8.02;50.88
33191;BME280;19554;42.652;23.364;2023-03-20T00:41:30;94936.78;;;7.98;50.77
33191;BME280;19554;42.652;23.364;2023-03-20T00:44:00;94931.69;;;7.96;51.21
33191;BME280;19554;42.652;23.364;2023-03-20T00:46:28;94921.06;;;7.86;51.29
33191;BME280;19554;42.652;23.364;2023-03-20T00:48:56;94830.28;;;7.21;51.46
33191;BME280;19554;42.652;23.364;2023-03-20T00:51:21;94929.81;;;7.81;51.34
33191;BME280;19554;42.652;23.364;2023-03-20T00:53:46;94925.78;;;7.69;51.41
33191;BME280;19554;42.652;23.364;2023-03-20T00:56:41;94931.94;;;7.69;51.56
33191;BME280;19554;42.652;23.364;2023-03-20T00:59:13;94931.91;;;7.59;51.81
33191;BME280;19554;42.652;23.364;2023-03-20T01:01:41;94925.75;;;7.58;51.56
33191;BME280;19554;42.652;23.364;2023-03-20T01:04:15;94919.66;;;7.58;51.54
33191;BME280;19554;42.652;23.364;2023-03-20T01:06:41;94908.47;;;7.51;51.61
33191;BME280;19554;42.652;23.364;2023-03-20T01:09:07;94918.06;;;7.57;51.71
33191;BME280;19554;42.652;23.364;2023-03-20T01:11:32;94905.28;;;7.49;51.74
33191;BME280;19554;42.652;23.364;2023-03-20T01:13:58;94910.06;;;7.52;52.27
33191;BME280;19554;42.652;23.364;2023-03-20T01:16:25;94919.09;;;7.51;51.99
33191;BME280;19554;42.652;23.364;2023-03-20T01:18:51;94870.09;;;7.16;52.17
33191;BME280;19554;42.652;23.364;2023-03-20T01:21:18;94902.00;;;7.31;51.82
33191;BME280;19554;42.652;23.364;2023-03-20T01:23:44;94831.41;;;6.68;52.37
33191;BME280;19554;42.652;23.364;2023-03-20T01:26:23;94909.88;;;7.11;52.38
33191;BME280;19554;42.652;23.364;2023-03-20T01:28:51;94915.19;;;7.11;52.64
33191;BME280;19554;42.652;23.364;2023-03-20T01:31:17;94903.78;;;7.10;52.85
33191;BME280;19554;42.652;23.364;2023-03-20T01:33:43;94911.28;;;7.19;52.56
33191;BME280;19554;42.652;23.364;2023-03-20T01:36:13;94872.13;;;6.94;52.55
33191;BME280;19554;42.652;23.364;2023-03-20T01:38:40;94878.56;;;7.08;52.25
33191;BME280;19554;42.652;23.364;2023-03-20T01:41:14;94922.72;;;7.29;52.46
33191;BME280;19554;42.652;23.364;2023-03-20T01:43:41;94883.38;;;7.16;52.34
33191;BME280;19554;42.652;23.364;2023-03-20T01:51:17;94917.19;;;7.41;52.17
33191;BME280;19554;42.652;23.364;2023-03-20T01:53:49;94911.09;;;7.41;51.87
33191;BME280;19554;42.652;23.364;2023-03-20T01:56:16;94924.13;;;7.47;51.71
33191;BME280;19554;42.652;23.364;2023-03-20T01:58:46;94922.81;;;7.50;51.67
33191;BME280;19554;42.652;23.364;2023-03-20T02:01:13;94847.47;;;7.03;51.72
33191;BME280;19554;42.652;23.364;2023-03-20T02:03:42;94915.38;;;7.52;52.00
33191;BME280;19554;42.652;23.364;2023-03-20T02:06:08;94894.09;;;7.36;51.78
33191;BME280;19554;42.652;23.364;2023-03-20T02:08:46;94840.53;;;6.92;51.93
33191;BME280;19554;42.652;23.364;2023-03-20T02:11:13;94902.56;;;7.33;51.60
33191;BME280;19554;42.652;23.364;2023-03-20T02:13:39;94910.56;;;7.39;51.74
33191;BME280;19554;42.652;23.364;2023-03-20T02:16:15;94905.78;;;7.35;51.73
33191;BME280;19554;42.652;23.364;2023-03-20T02:18:43;94905.78;;;7.35;52.07
33191;BME280;19554;42.652;23.364;2023-03-20T02:24:37;94904.66;;;7.31;52.12
33191;BME280;19554;42.652;23.364;2023-03-20T02:27:29;94892.94;;;7.17;52.03
33191;BME280;19554;42.652;23.364;2023-03-20T02:44:12;94916.75;;;7.02;52.88
33191;BME280;19554;42.652;23.364;2023-03-20T02:51:57;94906.38;;;6.95;53.29
33191;BME280;19554;42.652;23.364;2023-03-20T02:54:32;94881.09;;;6.82;53.40
33191;BME280;19554;42.652;23.364;2023-03-20T03:02:43;94896.00;;;6.94;52.95
33191;BME280;19554;42.652;23.364;2023-03-20T03:05:24;94892.25;;;6.89;52.73
33191;BME280;19554;42.652;23.364;2023-03-20T03:07:54;94895.44;;;6.86;53.02
33191;BME280;19554;42.652;23.364;2023-03-20T03:10:25;94893.22;;;6.73;53.47
33191;BME280;19554;42.652;23.364;2023-03-20T03:12:55;94895.06;;;6.73;53.71
33191;BME280;19554;42.652;23.364;2023-03-20T03:15:48;94901.16;;;6.68;53.97
33191;BME280;19554;42.652;23.364;2023-03-20T03:18:20;94901.16;;;6.68;53.91
33191;BME280;19554;42.652;23.364;2023-03-20T03:20:49;94900.06;;;6.64;53.86
33191;BME280;19554;42.652;23.364;2023-03-20T03:23:30;94810.81;;;6.00;54.17
33191;BME280;19554;42.652;23.364;2023-03-20T03:25:57;94862.25;;;6.36;54.21
33191;BME280;19554;42.652;23.364;2023-03-20T03:28:26;94901.59;;;6.55;54.45
33191;BME280;19554;42.652;23.364;2023-03-20T03:30:55;94906.63;;;6.51;54.89
33191;BME280;19554;42.652;23.364;2023-03-20T03:33:31;94888.16;;;6.29;54.81
33191;BME280;19554;42.652;23.364;2023-03-20T03:38:43;94905.19;;;6.38;55.54
33191;BME280;19554;42.652;23.364;2023-03-20T03:43:56;94905.97;;;6.39;55.74
33191;BME280;19554;42.652;23.364;2023-03-20T03:46:31;94908.91;;;6.43;55.91
33191;BME280;19554;42.652;23.364;2023-03-20T03:49:01;94899.44;;;6.47;55.93
33191;BME280;19554;42.652;23.364;2023-03-20T03:51:30;94903.69;;;6.53;55.88
33191;BME280;19554;42.652;23.364;2023-03-20T03:56:31;94885.09;;;6.48;55.61
33191;BME280;19554;42.652;23.364;2023-03-20T03:59:01;94906.41;;;6.58;55.37
33191;BME280;19554;42.652;23.364;2023-03-20T04:01:30;94890.19;;;6.54;54.79
33191;BME280;19554;42.652;23.364;2023-03-20T04:04:00;94903.75;;;6.63;54.86
33191;BME280;19554;42.652;23.364;2023-03-20T04:06:28;94889.97;;;6.61;54.94
33191;BME280;19554;42.652;23.364;2023-03-20T04:08:53;94893.13;;;6.58;54.96
33191;BME280;19554;42.652;23.364;2023-03-20T04:11:23;94891.25;;;6.53;55.27
33191;BME280;19554;42.652;23.364;2023-03-20T04:13:50;94890.69;;;6.51;55.23
33191;BME280;19554;42.652;23.364;2023-03-20T04:16:18;94884.09;;;6.54;55.62
33191;BME280;19554;42.652;23.364;2023-03-20T04:18:44;94795.13;;;5.93;55.38
33191;BME280;19554;42.652;23.364;2023-03-20T04:21:10;94860.53;;;6.25;55.53
33191;BME280;19554;42.652;23.364;2023-03-20T04:23:36;94880.81;;;6.41;55.86
33191;BME280;19554;42.652;23.364;2023-03-20T04:26:02;94883.75;;;6.45;55.36
33191;BME280;19554;42.652;23.364;2023-03-20T04:28:27;94892.00;;;6.49;55.60
33191;BME280;19554;42.652;23.364;2023-03-20T04:30:58;94885.66;;;6.50;55.22
33191;BME280;19554;42.652;23.364;2023-03-20T04:33:25;94885.91;;;6.48;55.61
33191;BME280;19554;42.652;23.364;2023-03-20T04:35:51;94856.34;;;6.29;55.50
33191;BME280;19554;42.652;23.364;2023-03-20T04:38:17;94875.00;;;6.45;55.29
33191;BME280;19554;42.652;23.364;2023-03-20T04:40:43;94883.00;;;6.50;55.21
33191;BME280;19554;42.652;23.364;2023-03-20T04:43:09;94877.72;;;6.50;55.03
33191;BME280;19554;42.652;23.364;2023-03-20T04:45:35;94894.72;;;6.59;54.86
33191;BME280;19554;42.652;23.364;2023-03-20T04:48:01;94879.88;;;6.58;54.46
33191;BME280;19554;42.652;23.364;2023-03-20T04:50:26;94885.03;;;6.75;53.93
33191;BME280;19554;42.652;23.364;2023-03-20T04:52:52;94886.91;;;6.79;54.20
33191;BME280;19554;42.652;23.364;2023-03-20T04:55:17;94891.97;;;6.86;53.71
33191;BME280;19554;42.652;23.364;2023-03-20T04:57:43;94902.19;;;7.04;53.43
33191;BME280;19554;42.652;23.364;2023-03-20T05:00:09;94908.63;;;7.24;53.10
33191;BME280;19554;42.652;23.364;2023-03-20T05:02:35;94914.00;;;7.39;52.63
33191;BME280;19554;42.652;23.364;2023-03-20T05:05:00;94883.72;;;7.35;52.46
33191;BME280;19554;42.652;23.364;2023-03-20T05:07:26;94924.72;;;7.65;51.93
33191;BME280;19554;42.652;23.364;2023-03-20T05:09:52;94919.44;;;7.75;51.84
33191;BME280;19554;42.652;23.364;2023-03-20T05:12:18;94913.88;;;7.81;51.38
33191;BME280;19554;42.652;23.364;2023-03-20T05:14:43;94921.59;;;7.88;51.32
33191;BME280;19554;42.652;23.364;2023-03-20T05:17:08;94906.44;;;7.73;51.37
33191;BME280;19554;42.652;23.364;2023-03-20T05:19:34;94924.50;;;7.81;51.46
33191;BME280;19554;42.652;23.364;2023-03-20T05:21:59;94911.19;;;7.71;51.48
33191;BME280;19554;42.652;23.364;2023-03-20T05:24:25;94922.38;;;7.78;51.73
33191;BME280;19554;42.652;23.364;2023-03-20T05:26:53;94915.44;;;7.72;51.70
33191;BME280;19554;42.652;23.364;2023-03-20T05:29:18;94919.47;;;7.80;51.72
33191;BME280;19554;42.652;23.364;2023-03-20T05:31:44;94926.63;;;7.90;51.30
33191;BME280;19554;42.652;23.364;2023-03-20T05:34:09;94881.16;;;7.60;51.07
33191;BME280;19554;42.652;23.364;2023-03-20T05:36:35;94938.91;;;8.01;50.99
33191;BME280;19554;42.652;23.364;2023-03-20T05:39:00;94937.88;;;8.07;50.61
33191;BME280;19554;42.652;23.364;2023-03-20T05:41:26;94882.53;;;7.89;50.80
33191;BME280;19554;42.652;23.364;2023-03-20T05:43:51;94935.28;;;8.38;50.50
33191;BME280;19554;42.652;23.364;2023-03-20T05:46:16;94928.34;;;8.52;50.22
33191;BME280;19554;42.652;23.364;2023-03-20T05:48:42;94921.97;;;8.63;51.00
33191;BME280;19554;42.652;23.364;2023-03-20T05:51:07;94929.94;;;8.84;50.43
33191;BME280;19554;42.652;23.364;2023-03-20T05:53:32;94920.88;;;8.85;49.88
33191;BME280;19554;42.652;23.364;2023-03-20T05:55:58;94900.63;;;8.89;50.41
33191;BME280;19554;42.652;23.364;2023-03-20T05:58:23;94942.38;;;9.19;49.68
33191;BME280;19554;42.652;23.364;2023-03-20T06:00:49;94845.59;;;8.69;49.45
33191;BME280;19554;42.652;23.364;2023-03-20T06:03:14;94939.94;;;9.33;49.27
33191;BME280;19554;42.652;23.364;2023-03-20T06:05:40;94843.72;;;8.80;49.80
33191;BME280;19554;42.652;23.364;2023-03-20T06:08:06;94801.97;;;8.34;49.89
33191;BME280;19554;42.652;23.364;2023-03-20T06:10:32;94917.59;;;9.23;49.98
33191;BME280;19554;42.652;23.364;2023-03-20T06:12:58;94928.16;;;9.54;49.79
33191;BME280;19554;42.652;23.364;2023-03-20T06:15:26;94933.94;;;9.71;49.29
33191;BME280;19554;42.652;23.364;2023-03-20T06:17:53;94926.84;;;9.46;50.44
33191;BME280;19554;42.652;23.364;2023-03-20T06:20:18;94927.16;;;9.35;50.47
33191;BME280;19554;42.652;23.364;2023-03-20T06:22:44;94925.97;;;9.66;50.09
33191;BME280;19554;42.652;23.364;2023-03-20T06:25:09;94935.88;;;9.56;49.70
33191;BME280;19554;42.652;23.364;2023-03-20T06:27:35;94936.72;;;9.36;50.17
33191;BME280;19554;42.652;23.364;2023-03-20T06:30:00;94947.41;;;9.25;50.49
33191;BME280;19554;42.652;23.364;2023-03-20T06:32:26;94910.75;;;8.82;51.04
33191;BME280;19554;42.652;23.364;2023-03-20T06:34:52;94945.84;;;9.09;51.04
33191;BME280;19554;42.652;23.364;2023-03-20T06:37:18;94937.03;;;9.19;50.94
33191;BME280;19554;42.652;23.364;2023-03-20T06:39:43;94935.19;;;9.24;50.54
33191;BME280;19554;42.652;23.364;2023-03-20T06:42:09;94939.91;;;9.48;50.44
33191;BME280;19554;42.652;23.364;2023-03-20T06:44:34;94932.94;;;9.52;49.62
33191;BME280;19554;42.652;23.364;2023-03-20T06:47:00;94934.59;;;9.38;50.03
33191;BME280;19554;42.652;23.364;2023-03-20T06:49:25;94938.84;;;9.44;49.55
33191;BME280;19554;42.652;23.364;2023-03-20T06:51:52;94932.41;;;9.55;49.11
33191;BME280;19554;42.652;23.364;2023-03-20T06:54:17;94940.94;;;9.52;49.43
33191;BME280;19554;42.652;23.364;2023-03-20T06:56:43;94929.22;;;9.58;49.62
33191;BME280;19554;42.652;23.364;2023-03-20T06:59:08;94932.28;;;9.86;48.76
33191;BME280;19554;42.652;23.364;2023-03-20T07:01:34;94926.28;;;10.04;48.59
33191;BME280;19554;42.652;23.364;2023-03-20T07:04:00;94916.66;;;10.08;48.76
33191;BME280;19554;42.652;23.364;2023-03-20T07:06:25;94917.56;;;10.43;48.89
33191;BME280;19554;42.652;23.364;2023-03-20T07:08:51;94905.56;;;10.70;48.02
33191;BME280;19554;42.652;23.364;2023-03-20T07:11:17;94917.63;;;10.96;48.56
33191;BME280;19554;42.652;23.364;2023-03-20T07:13:43;94819.09;;;10.41;47.77
33191;BME280;19554;42.652;23.364;2023-03-20T07:16:08;94899.16;;;11.24;47.46
33191;BME280;19554;42.652;23.364;2023-03-20T07:18:34;94915.53;;;11.41;46.79
33191;BME280;19554;42.652;23.364;2023-03-20T07:21:01;94901.22;;;11.32;47.10
33191;BME280;19554;42.652;23.364;2023-03-20T07:23:31;94920.44;;;11.34;47.20
33191;BME280;19554;42.652;23.364;2023-03-20T07:25:57;94910.28;;;11.79;45.89
33191;BME280;19554;42.652;23.364;2023-03-20T07:28:22;94879.41;;;11.68;45.34
33191;BME280;19554;42.652;23.364;2023-03-20T07:30:48;94898.31;;;11.95;45.18
33191;BME280;19554;42.652;23.364;2023-03-20T07:33:13;94907.50;;;12.27;44.43
33191;BME280;19554;42.652;23.364;2023-03-20T07:35:39;94830.88;;;11.98;43.56
33191;BME280;19554;42.652;23.364;2023-03-20T07:38:05;94912.13;;;12.59;43.55
33191;BME280;19554;42.652;23.364;2023-03-20T07:40:31;94908.38;;;12.74;43.96
33191;BME280;19554;42.652;23.364;2023-03-20T07:42:57;94816.97;;;11.96;44.19
33191;BME280;19554;42.652;23.364;2023-03-20T07:45:22;94889.81;;;12.31;43.95
33191;BME280;19554;42.652;23.364;2023-03-20T07:47:48;94908.69;;;12.21;45.45
33191;BME280;19554;42.652;23.364;2023-03-20T07:50:13;94913.22;;;12.39;44.52
33191;BME280;19554;42.652;23.364;2023-03-20T07:52:39;94912.38;;;12.57;44.72
33191;BME280;19554;42.652;23.364;2023-03-20T07:55:05;94914.75;;;12.78;43.42
33191;BME280;19554;42.652;23.364;2023-03-20T07:57:32;94910.13;;;12.65;43.26
33191;BME280;19554;42.652;23.364;2023-03-20T07:59:57;94826.88;;;12.15;43.35
33191;BME280;19554;42.652;23.364;2023-03-20T08:02:22;94918.94;;;12.84;43.17
33191;BME280;19554;42.652;23.364;2023-03-20T08:04:48;94911.00;;;12.79;42.87
33191;BME280;19554;42.652;23.364;2023-03-20T08:07:13;94922.66;;;12.69;43.50
33191;BME280;19554;42.652;23.364;2023-03-20T08:09:39;94907.38;;;12.70;43.37
33191;BME280;19554;42.652;23.364;2023-03-20T08:12:05;94906.88;;;12.68;43.35
33191;BME280;19554;42.652;23.364;2023-03-20T08:14:30;94902.88;;;12.98;43.01
33191;BME280;19554;42.652;23.364;2023-03-20T08:16:56;94908.09;;;13.22;42.53
33191;BME280;19554;42.652;23.364;2023-03-20T08:19:22;94902.66;;;13.27;41.90
33191;BME280;19554;42.652;23.364;2023-03-20T08:21:48;94908.84;;;13.09;42.46
33191;BME280;19554;42.652;23.364;2023-03-20T08:24:14;94885.25;;;13.11;43.03
33191;BME280;19554;42.652;23.364;2023-03-20T08:26:39;94849.19;;;12.89;42.38
33191;BME280;19554;42.652;23.364;2023-03-20T08:29:05;94909.72;;;13.50;42.40
33191;BME280;19554;42.652;23.364;2023-03-20T08:31:31;94886.84;;;13.67;42.03
33191;BME280;19554;42.652;23.364;2023-03-20T08:33:57;94907.31;;;13.90;41.57
33191;BME280;19554;42.652;23.364;2023-03-20T08:36:23;94909.50;;;13.88;41.30
33191;BME280;19554;42.652;23.364;2023-03-20T08:38:49;94825.97;;;13.54;40.81
33191;BME280;19554;42.652;23.364;2023-03-20T08:41:15;94910.81;;;14.27;40.27
33191;BME280;19554;42.652;23.364;2023-03-20T08:43:41;94909.97;;;14.40;40.20
33191;BME280;19554;42.652;23.364;2023-03-20T08:46:06;94902.78;;;14.50;39.95
33191;BME280;19554;42.652;23.364;2023-03-20T08:48:32;94799.22;;;13.76;39.95
33191;BME280;19554;42.652;23.364;2023-03-20T08:50:58;94891.28;;;14.35;39.73
33191;BME280;19554;42.652;23.364;2023-03-20T08:53:23;94889.13;;;14.23;40.01
33191;BME280;19554;42.652;23.364;2023-03-20T08:55:50;94887.00;;;14.34;39.85
33191;BME280;19554;42.652;23.364;2023-03-20T08:58:17;94890.53;;;14.21;40.25
33191;BME280;19554;42.652;23.364;2023-03-20T09:00:43;94910.56;;;14.37;39.76
33191;BME280;19554;42.652;23.364;2023-03-20T09:03:16;94879.69;;;14.49;39.81
33191;BME280;19554;42.652;23.364;2023-03-20T09:05:44;94891.81;;;14.60;39.34
33191;BME280;19554;42.652;23.364;2023-03-20T09:08:09;94887.06;;;14.57;39.45
33191;BME280;19554;42.652;23.364;2023-03-20T09:10:35;94881.69;;;14.57;39.70
33191;BME280;19554;42.652;23.364;2023-03-20T09:13:00;94881.91;;;14.69;39.42
33191;BME280;19554;42.652;23.364;2023-03-20T09:15:26;94841.25;;;14.62;39.12
33191;BME280;19554;42.652;23.364;2023-03-20T09:17:52;94868.41;;;14.83;38.99
33191;BME280;19554;42.652;23.364;2023-03-20T09:20:17;94850.00;;;14.67;39.01
33191;BME280;19554;42.652;23.364;2023-03-20T09:22:43;94872.63;;;14.75;38.84
33191;BME280;19554;42.652;23.364;2023-03-20T09:25:10;94872.44;;;14.72;38.93
33191;BME280;19554;42.652;23.364;2023-03-20T09:27:36;94866.25;;;14.93;39.05
33191;BME280;19554;42.652;23.364;2023-03-20T09:30:02;94861.72;;;15.03;38.48
33191;BME280;19554;42.652;23.364;2023-03-20T09:32:27;94877.56;;;15.13;38.48
33191;BME280;19554;42.652;23.364;2023-03-20T09:34:53;94863.03;;;15.14;38.46
33191;BME280;19554;42.652;23.364;2023-03-20T09:37:18;94871.41;;;15.12;38.43
33191;BME280;19554;42.652;23.364;2023-03-20T09:39:43;94847.44;;;14.93;38.45
33191;BME280;19554;42.652;23.364;2023-03-20T09:42:29;94853.78;;;14.98;38.42
33191;BME280;19554;42.652;23.364;2023-03-20T09:50:31;94828.56;;;15.16;38.58
33191;BME280;19554;42.652;23.364;2023-03-20T09:53:12;94825.16;;;15.41;37.85
33191;BME280;19554;42.652;23.364;2023-03-20T09:55:42;94810.63;;;15.51;37.32
33191;BME280;19554;42.652;23.364;2023-03-20T09:58:15;94816.00;;;15.43;36.97
33191;BME280;19554;42.652;23.364;2023-03-20T10:00:44;94809.91;;;15.68;36.78
33191;BME280;19554;42.652;23.364;2023-03-20T10:03:50;94808.31;;;15.76;36.69
33191;BME280;19554;42.652;23.364;2023-03-20T10:06:17;94795.50;;;15.81;36.55
33191;BME280;19554;42.652;23.364;2023-03-20T10:08:44;94793.47;;;16.04;36.50
33191;BME280;19554;42.652;23.364;2023-03-20T10:11:49;94780.16;;;15.99;36.44
33191;BME280;19554;42.652;23.364;2023-03-20T10:14:37;94781.25;;;15.90;36.31
33191;BME280;19554;42.652;23.364;2023-03-20T10:20:24;94781.91;;;15.86;36.36
33191;BME280;19554;42.652;23.364;2023-03-20T10:22:57;94751.81;;;15.84;36.23
33191;BME280;19554;42.652;23.364;2023-03-20T10:30:45;94769.53;;;16.20;36.12
33191;BME280;19554;42.652;23.364;2023-03-20T10:39:04;94762.22;;;16.38;35.46
33191;BME280;19554;42.652;23.364;2023-03-20T10:41:34;94677.25;;;15.76;35.30
33191;BME280;19554;42.652;23.364;2023-03-20T10:44:04;94748.44;;;16.40;35.00
33191;BME280;19554;42.652;23.364;2023-03-20T10:46:50;94753.31;;;16.55;34.50
33191;BME280;19554;42.652;23.364;2023-03-20T10:49:28;94744.41;;;16.63;34.65
33191;BME280;19554;42.652;23.364;2023-03-20T10:51:57;94750.28;;;16.65;35.03
33191;BME280;19554;42.652;23.364;2023-03-20T10:54:30;94731.69;;;16.72;34.06
33191;BME280;19554;42.652;23.364;2023-03-20T10:57:03;94736.75;;;16.83;34.11
33191;BME280;19554;42.652;23.364;2023-03-20T10:59:42;94706.31;;;16.73;33.30
33191;BME280;19554;42.652;23.364;2023-03-20T11:02:13;94729.69;;;16.99;33.41
33191;BME280;19554;42.652;23.364;2023-03-20T11:04:39;94660.38;;;16.61;33.23
33191;BME280;19554;42.652;23.364;2023-03-20T11:10:11;94722.81;;;17.10;33.13
33191;BME280;19554;42.652;23.364;2023-03-20T11:12:46;94711.94;;;17.27;33.14
33191;BME280;19554;42.652;23.364;2023-03-20T11:15:23;94640.25;;;16.97;32.43
33191;BME280;19554;42.652;23.364;2023-03-20T11:17:52;94708.97;;;17.20;33.03
33191;BME280;19554;42.652;23.364;2023-03-20T11:20:18;94700.03;;;17.28;33.01
33191;BME280;19554;42.652;23.364;2023-03-20T11:22:50;94611.81;;;16.78;32.55
33191;BME280;19554;42.652;23.364;2023-03-20T11:25:29;94689.56;;;17.27;32.60
33191;BME280;19554;42.652;23.364;2023-03-20T11:27:57;94685.28;;;17.26;32.66
33191;BME280;19554;42.652;23.364;2023-03-20T11:30:42;94684.69;;;17.20;32.55
33191;BME280;19554;42.652;23.364;2023-03-20T11:33:07;94681.25;;;17.11;32.94
33191;BME280;19554;42.652;23.364;2023-03-20T11:35:34;94677.44;;;17.12;32.70
33191;BME280;19554;42.652;23.364;2023-03-20T11:38:18;94592.19;;;16.69;32.47
33191;BME280;19554;42.652;23.364;2023-03-20T11:40:45;94658.03;;;17.19;32.58
33191;BME280;19554;42.652;23.364;2023-03-20T11:43:15;94618.88;;;17.13;32.43
33191;BME280;19554;42.652;23.364;2023-03-20T11:45:45;94572.75;;;16.85;32.01
33191;BME280;19554;42.652;23.364;2023-03-20T11:48:38;94651.59;;;17.53;32.57
33191;BME280;19554;42.652;23.364;2023-03-20T11:51:08;94637.72;;;17.42;31.48
33191;BME280;19554;42.652;23.364;2023-03-20T11:56:14;94632.19;;;17.39;31.30
33191;BME280;19554;42.652;23.364;2023-03-20T12:01:44;94629.31;;;17.44;30.44
33191;BME280;19554;42.652;23.364;2023-03-20T12:04:18;94590.28;;;17.20;30.56
33191;BME280;19554;42.652;23.364;2023-03-20T12:07:19;94625.50;;;17.57;30.71
33191;BME280;19554;42.652;23.364;2023-03-20T12:14:53;94614.59;;;17.74;30.61
33191;BME280;19554;42.652;23.364;2023-03-20T12:20:10;94600.13;;;17.91;30.12
33191;BME280;19554;42.652;23.364;2023-03-20T12:22:50;94598.72;;;18.06;29.67
33191;BME280;19554;42.652;23.364;2023-03-20T12:25:24;94597.50;;;18.16;28.86
33191;BME280;19554;42.652;23.364;2023-03-20T12:28:13;94599.06;;;18.17;28.91
33191;BME280;19554;42.652;23.364;2023-03-20T12:36:17;94589.03;;;18.17;28.76
33191;BME280;19554;42.652;23.364;2023-03-20T12:38:47;94586.91;;;18.23;28.83
33191;BME280;19554;42.652;23.364;2023-03-20T12:41:31;94580.72;;;18.22;28.42
33191;BME280;19554;42.652;23.364;2023-03-20T12:47:13;94570.03;;;18.26;27.58
33191;BME280;19554;42.652;23.364;2023-03-20T12:55:28;94562.72;;;18.39;27.74
33191;BME280;19554;42.652;23.364;2023-03-20T13:00:42;94550.19;;;18.59;27.13
33191;BME280;19554;42.652;23.364;2023-03-20T13:06:14;94546.50;;;18.63;26.04
33191;BME280;19554;42.652;23.364;2023-03-20T13:19:41;94526.22;;;18.57;24.56
33191;BME280;19554;42.652;23.364;2023-03-20T13:22:22;94500.44;;;18.47;24.83
33191;BME280;19554;42.652;23.364;2023-03-20T13:24:52;94525.09;;;18.70;24.11
33191;BME280;19554;42.652;23.364;2023-03-20T13:27:33;94519.69;;;18.70;24.23
33191;BME280;19554;42.652;23.364;2023-03-20T13:33:08;94522.16;;;18.76;24.25
33191;BME280;19554;42.652;23.364;2023-03-20T13:35:41;94513.81;;;18.81;23.75
33191;BME280;19554;42.652;23.364;2023-03-20T13:38:15;94513.16;;;18.84;24.13
33191;BME280;19554;42.652;23.364;2023-03-20T13:40:45;94472.69;;;18.63;24.07
33191;BME280;19554;42.652;23.364;2023-03-20T13:46:02;94455.75;;;18.50;24.25
33191;BME280;19554;42.652;23.364;2023-03-20T13:54:26;94490.50;;;18.76;23.96
33191;BME280;19554;42.652;23.364;2023-03-20T13:57:15;94493.56;;;18.75;23.52
33191;BME280;19554;42.652;23.364;2023-03-20T14:03:14;94484.31;;;18.76;23.79
33191;BME280;19554;42.652;23.364;2023-03-20T14:05:43;94474.03;;;18.69;23.99
33191;BME280;19554;42.652;23.364;2023-03-20T14:11:05;94476.66;;;18.78;23.81
33191;BME280;19554;42.652;23.364;2023-03-20T14:13:32;94475.63;;;18.82;23.77
33191;BME280;19554;42.652;23.364;2023-03-20T14:16:02;94474.38;;;18.80;23.40
33191;BME280;19554;42.652;23.364;2023-03-20T14:18:29;94465.38;;;18.76;23.64
33191;BME280;19554;42.652;23.364;2023-03-20T14:21:02;94466.91;;;18.89;23.60
33191;BME280;19554;42.652;23.364;2023-03-20T14:23:35;94473.09;;;18.89;23.39
33191;BME280;19554;42.652;23.364;2023-03-20T14:26:08;94464.66;;;18.91;24.10
33191;BME280;19554;42.652;23.364;2023-03-20T14:28:44;94453.03;;;18.90;23.82
33191;BME280;19554;42.652;23.364;2023-03-20T14:33:43;94454.19;;;18.89;23.60
33191;BME280;19554;42.652;23.364;2023-03-20T14:36:18;94446.16;;;18.93;23.72
33191;BME280;19554;42.652;23.364;2023-03-20T14:41:47;94448.19;;;18.96;24.07
33191;BME280;19554;42.652;23.364;2023-03-20T14:50:02;94445.34;;;19.05;24.13
33191;BME280;19554;42.652;23.364;2023-03-20T14:57:42;94447.03;;;18.97;24.04
33191;BME280;19554;42.652;23.364;2023-03-20T15:00:19;94445.84;;;18.94;24.23
33191;BME280;19554;42.652;23.364;2023-03-20T15:02:47;94442.13;;;18.87;24.25
33191;BME280;19554;42.652;23.364;2023-03-20T15:05:26;94436.38;;;18.88;24.24
33191;BME280;19554;42.652;23.364;2023-03-20T15:07:56;94440.56;;;18.86;24.27
33191;BME280;19554;42.652;23.364;2023-03-20T15:10:23;94448.25;;;18.84;24.53
33191;BME280;19554;42.652;23.364;2023-03-20T15:12:50;94434.94;;;18.79;24.56
33191;BME280;19554;42.652;23.364;2023-03-20T15:15:25;94440.38;;;18.79;24.41
33191;BME280;19554;42.652;23.364;2023-03-20T15:17:51;94399.00;;;18.38;24.25
33191;BME280;19554;42.652;23.364;2023-03-20T15:20:26;94445.75;;;18.66;23.98
33191;BME280;19554;42.652;23.364;2023-03-20T15:22:56;94442.84;;;18.59;24.27
33191;BME280;19554;42.652;23.364;2023-03-20T15:25:27;94442.66;;;18.52;24.28
33191;BME280;19554;42.652;23.364;2023-03-20T15:27:54;94439.75;;;18.45;24.35
33191;BME280;19554;42.652;23.364;2023-03-20T15:30:20;94399.94;;;18.17;24.35
33191;BME280;19554;42.652;23.364;2023-03-20T15:32:52;94430.75;;;18.41;24.58